createdAt,value
2023-02-11T00:00:04.937Z,999.14
2023-02-11T00:01:04.934Z,999.14
2023-02-11T00:02:04.953Z,999.09
2023-02-11T00:03:04.968Z,999.11
2023-02-11T00:04:04.893Z,999.10
2023-02-11T00:05:04.908Z,999.12
2023-02-11T00:06:04.869Z,999.08
2023-02-11T00:07:04.888Z,999.06
2023-02-11T00:08:04.877Z,999.11
2023-02-11T00:09:04.831Z,999.04
2023-02-11T00:10:04.821Z,999.10
2023-02-11T00:11:04.821Z,999.08
2023-02-11T00:12:04.795Z,999.08
2023-02-11T00:13:04.791Z,999.06
2023-02-11T00:14:04.783Z,999.00
2023-02-11T00:15:04.779Z,999.00
2023-02-11T00:16:04.749Z,998.91
2023-02-11T00:17:04.739Z,998.95
2023-02-11T00:18:04.744Z,998.94
2023-02-11T00:19:04.707Z,998.90
2023-02-11T00:20:07.825Z,998.90
2023-02-11T00:21:04.717Z,998.88
2023-02-11T00:22:04.677Z,998.86
2023-02-11T00:23:04.677Z,998.82
2023-02-11T00:24:04.648Z,998.88
2023-02-11T00:25:04.639Z,998.87
2023-02-11T00:26:04.644Z,998.83
2023-02-11T00:27:04.621Z,998.85
2023-02-11T00:28:04.663Z,998.88
2023-02-11T00:29:04.601Z,998.86
2023-02-11T00:30:04.573Z,998.85
2023-02-11T00:31:04.653Z,998.71
2023-02-11T00:32:04.571Z,998.81
2023-02-11T00:33:04.554Z,998.88
2023-02-11T00:34:04.540Z,998.70
2023-02-11T00:35:04.514Z,998.72
2023-02-11T00:36:04.506Z,998.66
2023-02-11T00:37:04.485Z,998.62
2023-02-11T00:38:04.475Z,998.71
2023-02-11T00:39:04.461Z,998.70
2023-02-11T00:40:06.662Z,998.72
2023-02-11T00:41:04.444Z,998.70
2023-02-11T00:42:04.416Z,998.74
2023-02-11T00:43:04.421Z,998.81
2023-02-11T00:44:04.396Z,998.72
2023-02-11T00:45:04.403Z,998.76
2023-02-11T00:46:04.418Z,998.77
2023-02-11T00:47:04.361Z,998.76
2023-02-11T00:48:04.359Z,998.78
2023-02-11T00:49:04.338Z,998.71
2023-02-11T00:50:04.329Z,998.75
2023-02-11T00:51:04.346Z,998.79
2023-02-11T00:52:04.356Z,998.74
2023-02-11T00:53:04.322Z,998.78
2023-02-11T00:54:04.262Z,998.84
2023-02-11T00:55:04.273Z,998.74
2023-02-11T00:56:04.263Z,998.77
2023-02-11T00:57:04.231Z,998.72
2023-02-11T00:58:04.235Z,998.74
2023-02-11T00:59:04.201Z,998.72
2023-02-11T01:00:04.199Z,998.73
2023-02-11T01:01:04.241Z,998.73
2023-02-11T01:02:04.171Z,998.75
2023-02-11T01:03:04.181Z,998.71
2023-02-11T01:04:04.140Z,998.67
2023-02-11T01:05:04.169Z,998.64
2023-02-11T01:06:04.120Z,998.64
2023-02-11T01:07:04.139Z,998.66
2023-02-11T01:08:04.088Z,998.70
2023-02-11T01:09:04.094Z,998.70
2023-02-11T01:10:04.067Z,998.67
2023-02-11T01:11:04.057Z,998.64
2023-02-11T01:12:04.045Z,998.66
2023-02-11T01:13:04.064Z,998.72
2023-02-11T01:14:04.060Z,998.64
2023-02-11T01:15:04.009Z,998.61
2023-02-11T01:16:04.048Z,998.66
2023-02-11T01:17:03.989Z,998.54
2023-02-11T01:18:03.963Z,998.58
2023-02-11T01:19:04.010Z,998.53
2023-02-11T01:20:03.953Z,998.54
2023-02-11T01:21:03.983Z,998.53
2023-02-11T01:22:03.932Z,998.56
2023-02-11T01:23:03.917Z,998.48
2023-02-11T01:24:03.919Z,998.48
2023-02-11T01:25:03.896Z,998.47
2023-02-11T01:26:03.888Z,998.43
2023-02-11T01:27:03.865Z,998.40
2023-02-11T01:28:03.886Z,998.43
2023-02-11T01:29:03.860Z,998.44
2023-02-11T01:30:03.841Z,998.43
2023-02-11T01:31:03.918Z,998.39
2023-02-11T01:32:03.874Z,998.40
2023-02-11T01:33:03.796Z,998.36
2023-02-11T01:34:03.780Z,998.49
2023-02-11T01:35:03.770Z,998.46
2023-02-11T01:36:03.772Z,998.37
2023-02-11T01:37:03.777Z,998.41
2023-02-11T01:38:03.739Z,998.45
2023-02-11T01:39:03.729Z,998.43
2023-02-11T01:40:03.723Z,998.42
2023-02-11T01:41:03.697Z,998.37
2023-02-11T01:42:03.669Z,998.35
2023-02-11T01:43:03.662Z,998.43
2023-02-11T01:44:03.648Z,998.50
2023-02-11T01:45:03.638Z,998.48
2023-02-11T01:46:03.658Z,998.44
2023-02-11T01:47:03.608Z,998.43
2023-02-11T01:48:03.612Z,998.43
2023-02-11T01:49:03.670Z,998.46
2023-02-11T01:50:03.569Z,998.48
2023-02-11T01:51:03.561Z,998.46
2023-02-11T01:52:03.548Z,998.48
2023-02-11T01:53:03.529Z,998.43
2023-02-11T01:54:03.528Z,998.48
2023-02-11T01:55:03.508Z,998.31
2023-02-11T01:56:03.497Z,998.32
2023-02-11T01:57:03.487Z,998.28
2023-02-11T01:58:03.479Z,998.31
2023-02-11T01:59:03.470Z,998.26
2023-02-11T02:00:03.450Z,998.26
2023-02-11T02:01:03.428Z,998.26
2023-02-11T02:02:03.425Z,998.27
2023-02-11T02:03:03.427Z,998.24
2023-02-11T02:04:03.468Z,998.31
2023-02-11T02:05:03.392Z,998.21
2023-02-11T02:06:03.374Z,998.26
2023-02-11T02:07:03.354Z,998.20
2023-02-11T02:08:03.401Z,998.17
2023-02-11T02:09:03.350Z,998.08
2023-02-11T02:10:03.326Z,998.09
2023-02-11T02:11:03.301Z,998.11
2023-02-11T02:12:03.320Z,998.12
2023-02-11T02:13:03.279Z,998.11
2023-02-11T02:14:03.282Z,998.07
2023-02-11T02:15:03.278Z,998.08
2023-02-11T02:16:03.339Z,998.08
2023-02-11T02:17:03.256Z,998.08
2023-02-11T02:18:03.243Z,998.06
2023-02-11T02:19:03.230Z,998.07
2023-02-11T02:20:03.217Z,998.07
2023-02-11T02:21:03.175Z,998.07
2023-02-11T02:22:03.181Z,998.11
2023-02-11T02:23:03.165Z,998.11
2023-02-11T02:24:03.147Z,998.10
2023-02-11T02:25:03.133Z,998.10
2023-02-11T02:26:03.134Z,998.07
2023-02-11T02:27:03.109Z,998.05
2023-02-11T02:28:03.148Z,998.06
2023-02-11T02:29:03.084Z,998.09
2023-02-11T02:30:03.080Z,997.97
2023-02-11T02:31:03.164Z,998.01
2023-02-11T02:32:03.044Z,997.99
2023-02-11T02:33:16.651Z,997.92
2023-02-11T02:34:04.025Z,997.98
2023-02-11T02:35:03.028Z,997.83
2023-02-11T02:36:03.008Z,997.83
2023-02-11T02:37:02.987Z,997.82
2023-02-11T02:38:03.025Z,997.71
2023-02-11T02:39:02.964Z,997.79
2023-02-11T02:40:02.950Z,997.82
2023-02-11T02:41:02.931Z,997.63
2023-02-11T02:42:02.936Z,997.66
2023-02-11T02:43:02.903Z,997.66
2023-02-11T02:44:02.920Z,997.66
2023-02-11T02:45:02.922Z,997.64
2023-02-11T02:46:02.874Z,997.63
2023-02-11T02:47:02.924Z,997.63
2023-02-11T02:48:02.842Z,997.68
2023-02-11T02:49:02.831Z,997.65
2023-02-11T02:50:02.813Z,997.62
2023-02-11T02:51:02.821Z,997.72
2023-02-11T02:52:02.810Z,997.74
2023-02-11T02:53:02.817Z,997.78
2023-02-11T02:54:02.777Z,997.74
2023-02-11T02:55:02.757Z,997.78
2023-02-11T02:56:02.817Z,997.72
2023-02-11T02:57:02.742Z,997.74
2023-02-11T02:58:02.726Z,997.73
2023-02-11T02:59:02.704Z,997.77
2023-02-11T03:00:02.714Z,997.73
2023-02-11T03:01:02.769Z,997.73
2023-02-11T03:02:02.681Z,997.77
2023-02-11T03:03:02.672Z,997.75
2023-02-11T03:04:02.705Z,997.68
2023-02-11T03:05:02.658Z,997.71
2023-02-11T03:06:02.624Z,997.66
2023-02-11T03:07:02.616Z,997.71
2023-02-11T03:08:02.605Z,997.71
2023-02-11T03:09:02.582Z,997.75
2023-02-11T03:10:02.570Z,997.80
2023-02-11T03:11:02.565Z,997.78
2023-02-11T03:12:02.542Z,997.73
2023-02-11T03:13:02.566Z,997.84
2023-02-11T03:14:02.542Z,997.76
2023-02-11T03:15:02.506Z,997.78
2023-02-11T03:16:02.526Z,997.77
2023-02-11T03:17:02.476Z,997.72
2023-02-11T03:18:02.473Z,997.78
2023-02-11T03:19:02.469Z,997.82
2023-02-11T03:20:02.472Z,997.80
2023-02-11T03:21:02.439Z,997.82
2023-02-11T03:22:02.419Z,997.78
2023-02-11T03:23:02.414Z,997.83
2023-02-11T03:24:02.401Z,997.79
2023-02-11T03:25:02.383Z,997.88
2023-02-11T03:26:02.389Z,997.77
2023-02-11T03:27:02.354Z,997.80
2023-02-11T03:28:02.360Z,997.79
2023-02-11T03:29:02.348Z,997.79
2023-02-11T03:30:02.341Z,997.82
2023-02-11T03:31:02.377Z,997.84
2023-02-11T03:32:02.368Z,997.87
2023-02-11T03:33:02.276Z,997.87
2023-02-11T03:34:02.357Z,997.85
2023-02-11T03:35:02.276Z,997.82
2023-02-11T03:36:02.258Z,997.81
2023-02-11T03:37:02.238Z,997.89
2023-02-11T03:38:02.241Z,997.78
2023-02-11T03:39:02.204Z,997.78
2023-02-11T03:40:02.230Z,997.73
2023-02-11T03:41:02.187Z,997.69
2023-02-11T03:42:02.169Z,997.70
2023-02-11T03:43:02.156Z,997.59
2023-02-11T03:44:02.155Z,997.65
2023-02-11T03:45:02.132Z,997.60
2023-02-11T03:46:02.252Z,997.56
2023-02-11T03:47:02.096Z,997.61
2023-02-11T03:48:02.125Z,997.64
2023-02-11T03:49:02.091Z,997.61
2023-02-11T03:50:02.091Z,997.69
2023-02-11T04:03:23.039Z,997.41
2023-02-11T04:04:22.963Z,997.42
2023-02-11T04:05:22.952Z,997.42
2023-02-11T04:06:22.931Z,997.40
2023-02-11T04:07:22.923Z,997.51
2023-02-11T04:08:22.918Z,997.48
2023-02-11T04:09:22.900Z,997.48
2023-02-11T04:10:22.926Z,997.46
2023-02-11T04:11:22.872Z,997.52
2023-02-11T04:12:22.865Z,997.45
2023-02-11T04:13:22.870Z,997.54
2023-02-11T04:14:22.846Z,997.47
2023-02-11T04:15:22.853Z,997.53
2023-02-11T04:16:22.846Z,997.54
2023-02-11T04:17:22.808Z,997.60
2023-02-11T04:18:22.785Z,997.58
2023-02-11T04:19:22.783Z,997.57
2023-02-11T04:20:22.783Z,997.47
2023-02-11T04:21:22.743Z,997.48
2023-02-11T04:22:30.261Z,997.44
2023-02-11T04:23:22.726Z,997.49
2023-02-11T04:24:22.711Z,997.46
2023-02-11T04:25:22.713Z,997.44
2023-02-11T04:26:22.697Z,997.47
2023-02-11T04:27:22.675Z,997.46
2023-02-11T04:28:22.756Z,997.44
2023-02-11T04:29:22.644Z,997.41
2023-02-11T04:30:22.664Z,997.25
2023-02-11T04:31:22.786Z,997.19
2023-02-11T04:32:22.615Z,997.20
2023-02-11T04:33:22.605Z,997.13
2023-02-11T04:34:22.594Z,997.09
2023-02-11T04:35:22.583Z,997.08
2023-02-11T04:36:22.596Z,997.03
2023-02-11T04:37:22.545Z,997.11
2023-02-11T04:38:22.534Z,997.02
2023-02-11T04:39:22.526Z,996.98
2023-02-11T04:40:22.561Z,997.01
2023-02-11T04:41:22.512Z,997.03
2023-02-11T04:42:22.483Z,997.05
2023-02-11T04:43:22.465Z,997.05
2023-02-11T04:44:22.467Z,997.05
2023-02-11T04:45:22.455Z,997.06
2023-02-11T04:46:22.534Z,997.15
2023-02-11T04:47:22.420Z,997.11
2023-02-11T04:48:22.445Z,997.03
2023-02-11T04:49:22.395Z,997.01
2023-02-11T04:50:22.389Z,996.92
2023-02-11T04:51:22.398Z,996.97
2023-02-11T04:52:22.377Z,996.94
2023-02-11T04:53:22.358Z,996.93
2023-02-11T04:54:22.346Z,996.87
2023-02-11T04:55:22.330Z,996.87
2023-02-11T04:56:22.362Z,997.04
2023-02-11T04:57:22.355Z,997.07
2023-02-11T04:58:22.294Z,997.02
2023-02-11T04:59:22.295Z,996.99
2023-02-11T05:00:22.270Z,996.92
2023-02-11T05:01:22.331Z,996.79
2023-02-11T05:02:22.253Z,996.71
2023-02-11T05:03:22.214Z,996.75
2023-02-11T05:04:22.259Z,996.69
2023-02-11T05:05:22.200Z,996.80
2023-02-11T05:06:22.207Z,996.79
2023-02-11T05:07:22.174Z,996.89
2023-02-11T05:08:22.194Z,996.92
2023-02-11T05:09:22.151Z,996.90
2023-02-11T05:10:22.151Z,997.02
2023-02-11T05:11:22.158Z,996.95
2023-02-11T05:12:22.119Z,996.96
2023-02-11T05:13:22.103Z,996.94
2023-02-11T05:14:22.114Z,997.00
2023-02-11T05:15:22.091Z,997.00
2023-02-11T05:16:22.124Z,997.01
2023-02-11T05:17:22.051Z,997.08
2023-02-11T05:18:22.043Z,997.15
2023-02-11T05:19:22.044Z,997.22
2023-02-11T05:20:22.012Z,997.20
2023-02-11T05:21:22.013Z,997.28
2023-02-11T05:22:21.992Z,997.16
2023-02-11T05:23:21.990Z,997.14
2023-02-11T05:24:21.975Z,997.15
2023-02-11T05:25:21.947Z,997.12
2023-02-11T05:26:21.961Z,996.99
2023-02-11T05:27:21.923Z,996.96
2023-02-11T05:28:21.986Z,996.94
2023-02-11T05:29:21.895Z,996.92
2023-02-11T05:30:21.898Z,996.88
2023-02-11T05:31:21.896Z,996.86
2023-02-11T05:32:21.887Z,996.88
2023-02-11T05:33:21.859Z,996.77
2023-02-11T05:34:21.827Z,996.84
2023-02-11T05:35:21.828Z,996.84
2023-02-11T05:36:21.830Z,996.82
2023-02-11T05:37:21.853Z,996.92
2023-02-11T05:38:21.810Z,996.92
2023-02-11T05:39:21.774Z,996.88
2023-02-11T05:40:21.770Z,996.86
2023-02-11T05:41:21.750Z,996.82
2023-02-11T05:42:21.764Z,996.81
2023-02-11T05:43:21.732Z,996.77
2023-02-11T05:44:21.711Z,996.68
2023-02-11T05:45:21.694Z,996.66
2023-02-11T05:46:21.739Z,996.69
2023-02-11T05:47:21.694Z,996.71
2023-02-11T05:48:21.643Z,996.71
2023-02-11T05:49:21.657Z,996.76
2023-02-11T05:50:21.624Z,996.67
2023-02-11T05:51:21.641Z,996.65
2023-02-11T05:52:21.616Z,996.60
2023-02-11T05:53:21.604Z,996.59
2023-02-11T05:54:21.615Z,996.57
2023-02-11T05:55:21.567Z,996.68
2023-02-11T05:56:21.585Z,996.74
2023-02-11T05:57:21.547Z,996.93
2023-02-11T05:58:21.544Z,996.99
2023-02-11T05:59:21.525Z,997.04
2023-02-11T06:00:21.498Z,997.13
2023-02-11T06:01:21.514Z,997.00
2023-02-11T06:02:21.526Z,996.97
2023-02-11T06:03:21.505Z,996.80
2023-02-11T06:04:21.473Z,996.69
2023-02-11T06:05:21.446Z,996.66
2023-02-11T06:06:21.443Z,996.71
2023-02-11T06:07:21.426Z,996.72
2023-02-11T06:08:21.413Z,996.79
2023-02-11T06:09:21.399Z,996.76
2023-02-11T06:10:21.385Z,996.75
2023-02-11T06:11:21.437Z,996.72
2023-02-11T06:12:21.355Z,996.67
2023-02-11T06:13:21.356Z,996.60
2023-02-11T06:14:21.333Z,996.62
2023-02-11T06:15:21.336Z,996.64
2023-02-11T06:16:21.376Z,996.63
2023-02-11T06:17:21.292Z,996.53
2023-02-11T06:18:21.274Z,996.63
2023-02-11T06:19:21.275Z,996.58
2023-02-11T06:20:21.260Z,996.58
2023-02-11T06:21:21.243Z,996.53
2023-02-11T06:22:21.323Z,996.59
2023-02-11T06:23:21.230Z,996.64
2023-02-11T06:24:47.829Z,996.65
2023-02-11T06:25:22.186Z,996.67
2023-02-11T06:26:21.194Z,996.69
2023-02-11T06:27:21.173Z,996.70
2023-02-11T06:28:21.217Z,996.66
2023-02-11T06:29:21.150Z,996.66
2023-02-11T06:30:21.141Z,996.63
2023-02-11T06:31:21.201Z,996.61
2023-02-11T06:32:42.327Z,996.59
2023-02-11T06:33:22.086Z,996.64
2023-02-11T06:34:21.071Z,996.59
2023-02-11T06:35:21.100Z,996.57
2023-02-11T06:36:21.084Z,996.56
2023-02-11T06:37:21.037Z,996.58
2023-02-11T06:38:21.040Z,996.58
2023-02-11T06:39:21.024Z,996.66
2023-02-11T06:40:21.021Z,996.58
2023-02-11T06:41:21.004Z,996.59
2023-02-11T06:42:20.974Z,996.59
2023-02-11T06:43:20.964Z,996.58
2023-02-11T06:44:20.989Z,996.62
2023-02-11T06:45:20.952Z,996.64
2023-02-11T06:46:21.039Z,996.67
2023-02-11T06:47:20.906Z,996.70
2023-02-11T06:48:20.972Z,996.72
2023-02-11T06:49:20.905Z,996.69
2023-02-11T06:50:20.896Z,996.70
2023-02-11T06:51:20.874Z,996.70
2023-02-11T06:52:20.856Z,996.66
2023-02-11T06:53:20.838Z,996.72
2023-02-11T06:54:20.815Z,996.68
2023-02-11T06:55:20.814Z,996.76
2023-02-11T06:56:20.821Z,996.75
2023-02-11T06:57:20.802Z,996.79
2023-02-11T06:58:20.778Z,996.82
2023-02-11T06:59:20.966Z,996.88
2023-02-11T07:00:20.764Z,996.95
2023-02-11T07:01:20.783Z,997.02
2023-02-11T07:02:21.197Z,997.06
2023-02-11T07:03:20.815Z,997.05
2023-02-11T07:04:20.727Z,997.05
2023-02-11T07:05:20.696Z,996.99
2023-02-11T07:06:20.680Z,996.99
2023-02-11T07:07:20.697Z,996.97
2023-02-11T07:08:20.649Z,997.02
2023-02-11T07:09:20.635Z,996.98
2023-02-11T07:10:20.627Z,997.01
2023-02-11T07:11:20.632Z,996.99
2023-02-11T07:12:20.684Z,997.04
2023-02-11T07:13:20.676Z,997.04
2023-02-11T07:14:20.575Z,997.03
2023-02-11T07:15:20.572Z,997.02
2023-02-11T07:16:20.754Z,997.07
2023-02-11T07:17:20.566Z,997.08
2023-02-11T07:18:20.595Z,997.08
2023-02-11T07:19:20.533Z,996.98
2023-02-11T07:20:20.494Z,997.02
2023-02-11T07:21:20.549Z,997.10
2023-02-11T07:22:20.497Z,997.03
2023-02-11T07:23:20.455Z,997.01
2023-02-11T07:24:20.571Z,996.99
2023-02-11T07:25:20.484Z,996.97
2023-02-11T07:26:20.457Z,996.94
2023-02-11T07:27:20.505Z,997.05
2023-02-11T07:28:20.478Z,997.00
2023-02-11T07:29:20.415Z,996.97
2023-02-11T07:30:20.374Z,996.94
2023-02-11T07:31:20.504Z,996.92
2023-02-11T07:32:20.481Z,996.90
2023-02-11T07:33:20.417Z,996.90
2023-02-11T07:34:20.377Z,996.89
2023-02-11T07:35:20.434Z,996.93
2023-02-11T07:36:20.296Z,996.87
2023-02-11T07:37:20.329Z,996.91
2023-02-11T07:38:20.345Z,996.93
2023-02-11T07:39:20.325Z,996.90
2023-02-11T07:40:20.291Z,996.94
2023-02-11T07:41:20.225Z,996.91
2023-02-11T07:42:20.212Z,996.90
2023-02-11T07:43:20.321Z,996.90
2023-02-11T07:44:20.250Z,996.90
2023-02-11T07:45:20.177Z,996.85
2023-02-11T07:46:20.359Z,996.89
2023-02-11T07:47:20.220Z,996.79
2023-02-11T07:48:20.176Z,996.81
2023-02-11T07:49:20.229Z,996.81
2023-02-11T07:50:20.386Z,996.94
2023-02-11T07:51:20.115Z,996.95
2023-02-11T07:52:20.115Z,997.07
2023-02-11T07:53:20.168Z,997.11
2023-02-11T07:54:20.356Z,997.07
2023-02-11T07:55:20.080Z,997.03
2023-02-11T07:56:20.063Z,997.00
2023-02-11T07:57:20.136Z,997.03
2023-02-11T07:58:20.075Z,996.97
2023-02-11T07:59:20.210Z,996.96
2023-02-11T08:00:21.285Z,996.95
2023-02-11T08:01:20.052Z,997.02
2023-02-11T08:02:20.050Z,997.07
2023-02-11T08:03:20.001Z,997.21
2023-02-11T08:04:19.956Z,997.22
2023-02-11T08:05:19.915Z,997.17
2023-02-11T08:06:19.904Z,997.16
2023-02-11T08:07:19.896Z,997.12
2023-02-11T08:08:19.980Z,997.14
2023-02-11T08:09:19.879Z,997.19
2023-02-11T08:10:20.235Z,997.25
2023-02-11T08:11:20.453Z,997.28
2023-02-11T08:12:19.906Z,997.33
2023-02-11T08:13:19.876Z,997.23
2023-02-11T08:14:19.803Z,997.27
2023-02-11T08:15:19.821Z,997.17
2023-02-11T08:16:19.848Z,997.23
2023-02-11T08:17:19.763Z,997.25
2023-02-11T08:18:19.811Z,997.25
2023-02-11T08:19:19.755Z,997.31
2023-02-11T08:20:19.744Z,997.25
2023-02-11T08:21:19.845Z,997.20
2023-02-11T08:22:19.729Z,997.19
2023-02-11T08:23:19.727Z,997.09
2023-02-11T08:24:19.725Z,997.04
2023-02-11T08:25:19.677Z,997.05
2023-02-11T08:26:19.652Z,997.05
2023-02-11T08:27:19.679Z,997.08
2023-02-11T08:28:19.709Z,997.02
2023-02-11T08:29:19.616Z,997.00
2023-02-11T08:30:19.596Z,997.06
2023-02-11T08:31:19.779Z,997.03
2023-02-11T08:32:19.631Z,997.03
2023-02-11T08:33:19.592Z,996.99
2023-02-11T08:34:19.544Z,997.03
2023-02-11T08:35:19.533Z,997.03
2023-02-11T08:36:19.586Z,997.00
2023-02-11T08:37:19.534Z,997.00
2023-02-11T08:38:28.188Z,997.04
2023-02-11T08:39:27.995Z,996.99
2023-02-11T08:40:19.503Z,996.97
2023-02-11T08:41:19.468Z,997.01
2023-02-11T08:42:19.466Z,997.05
2023-02-11T08:43:19.534Z,997.06
2023-02-11T08:44:19.423Z,997.03
2023-02-11T08:45:19.417Z,997.02
2023-02-11T08:46:19.389Z,997.02
2023-02-11T08:47:19.420Z,996.99
2023-02-11T08:48:19.367Z,997.03
2023-02-11T08:49:19.367Z,996.96
2023-02-11T08:50:19.333Z,996.93
2023-02-11T08:51:19.536Z,996.96
2023-02-11T08:52:19.306Z,996.93
2023-02-11T08:53:19.316Z,997.00
2023-02-11T08:54:19.307Z,997.03
2023-02-11T08:55:19.324Z,997.03
2023-02-11T08:56:19.275Z,996.98
2023-02-11T08:57:19.276Z,997.01
2023-02-11T08:58:19.383Z,996.99
2023-02-11T08:59:19.266Z,997.09
2023-02-11T09:00:19.263Z,996.98
2023-02-11T09:01:21.661Z,997.02
2023-02-11T09:02:19.490Z,997.05
2023-02-11T09:03:19.232Z,997.04
2023-02-11T09:04:19.272Z,996.96
2023-02-11T09:05:19.235Z,996.97
2023-02-11T09:06:19.192Z,997.00
2023-02-11T09:07:26.757Z,996.98
2023-02-11T09:08:19.252Z,996.98
2023-02-11T09:09:19.095Z,996.94
2023-02-11T09:10:19.087Z,996.96
2023-02-11T09:11:19.122Z,996.93
2023-02-11T09:12:19.058Z,996.86
2023-02-11T09:13:19.169Z,996.85
2023-02-11T09:14:19.060Z,996.85
2023-02-11T09:15:19.084Z,996.75
2023-02-11T09:16:19.054Z,996.80
2023-02-11T09:17:19.006Z,996.80
2023-02-11T09:18:19.033Z,996.75
2023-02-11T09:19:18.969Z,996.79
2023-02-11T09:20:18.953Z,996.73
2023-02-11T09:21:18.969Z,996.72
2023-02-11T09:22:18.929Z,996.74
2023-02-11T09:23:19.155Z,996.72
2023-02-11T09:24:18.956Z,996.64
2023-02-11T09:25:18.913Z,996.75
2023-02-11T09:26:18.918Z,996.74
2023-02-11T09:27:18.871Z,996.75
2023-02-11T09:28:18.901Z,996.78
2023-02-11T09:29:18.860Z,996.75
2023-02-11T09:30:18.824Z,996.77
2023-02-11T09:31:18.927Z,996.78
2023-02-11T09:32:18.808Z,996.76
2023-02-11T09:33:18.876Z,996.74
2023-02-11T09:34:18.789Z,996.78
2023-02-11T09:35:18.815Z,996.77
2023-02-11T09:36:18.755Z,996.79
2023-02-11T09:37:18.792Z,996.93
2023-02-11T09:38:18.746Z,996.93
2023-02-11T09:39:18.729Z,996.88
2023-02-11T09:40:18.710Z,996.90
2023-02-11T09:41:18.690Z,996.93
2023-02-11T09:42:18.719Z,996.89
2023-02-11T09:43:18.689Z,996.90
2023-02-11T09:44:18.654Z,996.93
2023-02-11T09:45:18.729Z,996.89
2023-02-11T09:46:18.675Z,996.88
2023-02-11T09:47:18.608Z,996.95
2023-02-11T10:03:47.424Z,996.81
2023-02-11T10:04:47.400Z,996.90
2023-02-11T10:05:47.403Z,996.92
2023-02-11T10:06:47.364Z,996.92
2023-02-11T10:07:47.350Z,996.87
2023-02-11T10:08:47.357Z,996.92
2023-02-11T10:09:47.376Z,996.98
2023-02-11T10:10:47.365Z,996.96
2023-02-11T10:11:47.317Z,996.88
2023-02-11T10:12:47.336Z,996.92
2023-02-11T10:13:47.271Z,996.91
2023-02-11T10:14:47.267Z,997.01
2023-02-11T10:15:47.316Z,996.97
2023-02-11T10:16:47.289Z,996.94
2023-02-11T10:17:47.223Z,996.96
2023-02-11T10:18:47.219Z,997.04
2023-02-11T10:19:47.251Z,996.98
2023-02-11T10:20:47.208Z,997.01
2023-02-11T10:21:47.251Z,996.98
2023-02-11T10:22:47.189Z,996.98
2023-02-11T10:23:47.250Z,996.97
2023-02-11T10:24:47.159Z,996.97
2023-02-11T10:25:47.159Z,996.94
2023-02-11T10:26:47.120Z,997.00
2023-02-11T10:27:47.090Z,996.99
2023-02-11T10:28:47.118Z,996.89
2023-02-11T10:29:47.088Z,996.94
2023-02-11T10:30:47.243Z,996.94
2023-02-11T10:31:47.183Z,996.92
2023-02-11T10:32:47.036Z,996.97
2023-02-11T10:33:47.019Z,996.90
2023-02-11T10:34:47.067Z,996.95
2023-02-11T10:35:47.024Z,996.95
2023-02-11T10:36:46.990Z,997.02
2023-02-11T10:37:46.965Z,997.01
2023-02-11T10:38:47.007Z,996.99
2023-02-11T10:39:48.034Z,996.89
2023-02-11T10:40:47.148Z,996.94
2023-02-11T10:41:46.944Z,996.92
2023-02-11T10:42:46.927Z,996.84
2023-02-11T10:43:46.887Z,996.83
2023-02-11T10:44:47.015Z,996.81
2023-02-11T10:45:46.880Z,996.83
2023-02-11T10:46:46.912Z,996.77
2023-02-11T10:47:46.905Z,996.77
2023-02-11T10:48:46.829Z,996.79
2023-02-11T10:49:46.846Z,996.80
2023-02-11T10:50:46.813Z,996.84
2023-02-11T10:51:46.793Z,996.82
2023-02-11T10:52:47.047Z,996.81
2023-02-11T10:53:46.762Z,996.69
2023-02-11T10:54:46.773Z,996.76
2023-02-11T10:55:46.741Z,996.74
2023-02-11T10:56:46.861Z,996.76
2023-02-11T10:57:46.702Z,996.74
2023-02-11T10:58:46.742Z,996.71
2023-02-11T10:59:46.678Z,996.89
2023-02-11T11:00:46.697Z,996.85
2023-02-11T11:01:46.922Z,996.90
2023-02-11T11:02:46.675Z,996.81
2023-02-11T11:03:46.705Z,996.87
2023-02-11T11:04:46.659Z,996.85
2023-02-11T11:05:46.960Z,996.83
2023-02-11T11:06:46.601Z,996.75
2023-02-11T11:07:46.582Z,996.74
2023-02-11T11:08:46.842Z,996.78
2023-02-11T11:09:46.835Z,996.71
2023-02-11T11:10:46.567Z,996.80
2023-02-11T11:11:46.535Z,996.76
2023-02-11T11:12:46.576Z,996.84
2023-02-11T11:13:46.497Z,996.75
2023-02-11T11:14:46.566Z,996.77
2023-02-11T11:15:46.541Z,996.84
2023-02-11T11:16:46.511Z,996.83
2023-02-11T11:17:46.519Z,996.86
2023-02-11T11:18:46.445Z,996.82
2023-02-11T11:19:46.442Z,996.80
2023-02-11T11:20:46.515Z,996.76
2023-02-11T11:21:53.913Z,996.72
2023-02-11T11:22:46.433Z,996.76
2023-02-11T11:23:46.456Z,996.80
2023-02-11T11:24:54.634Z,996.80
2023-02-11T11:25:46.378Z,996.78
2023-02-11T11:26:53.928Z,996.78
2023-02-11T11:27:54.757Z,996.80
2023-02-11T11:28:53.833Z,996.79
2023-02-11T11:29:54.823Z,996.81
2023-02-11T11:30:55.357Z,996.80
2023-02-11T11:31:53.838Z,996.78
2023-02-11T11:32:46.271Z,996.83
2023-02-11T11:33:46.246Z,996.78
2023-02-11T11:34:46.235Z,996.82
2023-02-11T11:35:46.236Z,996.76
2023-02-11T11:36:46.233Z,996.74
2023-02-11T11:37:46.204Z,996.79
2023-02-11T11:38:46.187Z,996.77
2023-02-11T11:39:46.162Z,996.68
2023-02-11T11:40:46.161Z,996.71
2023-02-11T11:41:46.143Z,996.70
2023-02-11T11:42:46.131Z,996.75
2023-02-11T11:43:46.128Z,996.76
2023-02-11T11:44:46.113Z,996.74
2023-02-11T11:45:46.100Z,996.72
2023-02-11T11:46:46.137Z,996.80
2023-02-11T11:47:46.082Z,996.80
2023-02-11T11:48:46.055Z,996.74
2023-02-11T11:49:46.052Z,996.73
2023-02-11T11:50:46.043Z,996.82
2023-02-11T11:51:46.063Z,996.72
2023-02-11T11:52:46.013Z,996.68
2023-02-11T11:53:45.994Z,996.69
2023-02-11T11:54:46.009Z,996.67
2023-02-11T11:55:45.971Z,996.67
2023-02-11T11:56:45.959Z,996.62
2023-02-11T11:57:45.949Z,996.65
2023-02-11T11:58:45.935Z,996.61
2023-02-11T11:59:45.923Z,996.58
2023-02-11T12:00:45.920Z,996.62
2023-02-11T12:01:46.020Z,996.68
2023-02-11T12:02:45.938Z,996.66
2023-02-11T12:03:45.864Z,996.70
2023-02-11T12:04:45.861Z,996.70
2023-02-11T12:05:45.858Z,996.70
2023-02-11T12:06:45.835Z,996.66
2023-02-11T12:07:45.811Z,996.65
2023-02-11T12:08:45.827Z,996.65
2023-02-11T12:09:45.804Z,996.59
2023-02-11T12:10:45.801Z,996.67
2023-02-11T12:11:45.790Z,996.67
2023-02-11T12:12:46.912Z,996.63
2023-02-11T12:13:45.749Z,996.65
2023-02-11T12:14:45.731Z,996.61
2023-02-11T12:15:45.740Z,996.60
2023-02-11T12:16:45.770Z,996.70
2023-02-11T12:17:45.682Z,996.63
2023-02-11T12:18:47.564Z,996.71
2023-02-11T12:19:45.667Z,996.66
2023-02-11T12:20:45.661Z,996.65
2023-02-11T12:21:45.637Z,996.68
2023-02-11T12:22:45.643Z,996.67
2023-02-11T12:23:45.660Z,996.69
2023-02-11T12:24:45.628Z,996.65
2023-02-11T12:25:45.598Z,996.65
2023-02-11T12:26:45.580Z,996.59
2023-02-11T12:27:45.579Z,996.64
2023-02-11T12:28:45.577Z,996.61
2023-02-11T12:29:45.564Z,996.62
2023-02-11T12:30:45.570Z,996.64
2023-02-11T12:31:45.559Z,996.62
2023-02-11T12:32:45.535Z,996.60
2023-02-11T12:33:45.487Z,996.63
2023-02-11T12:34:45.493Z,996.61
2023-02-11T12:35:45.473Z,996.55
2023-02-11T12:36:45.468Z,996.55
2023-02-11T12:37:45.448Z,996.49
2023-02-11T12:38:45.442Z,996.58
2023-02-11T12:39:45.434Z,996.54
2023-02-11T12:40:45.437Z,996.50
2023-02-11T12:41:45.404Z,996.49
2023-02-11T12:42:45.388Z,996.45
2023-02-11T12:43:45.371Z,996.46
2023-02-11T12:44:45.357Z,996.43
2023-02-11T12:45:45.383Z,996.50
2023-02-11T12:46:45.327Z,996.49
2023-02-11T12:47:45.333Z,996.43
2023-02-11T12:48:45.321Z,996.45
2023-02-11T12:49:45.294Z,996.42
2023-02-11T12:50:45.295Z,996.47
2023-02-11T12:51:45.277Z,996.40
2023-02-11T12:52:45.257Z,996.39
2023-02-11T12:53:45.245Z,996.38
2023-02-11T12:54:45.240Z,996.43
2023-02-11T12:55:45.248Z,996.49